sensor_id;sensor_type;location;lat;lon;timestamp;pressure;altitude;pressure_sealevel;temperature;humidity
8894;BME280;4483;48.622;9.230;2023-11-21T00:01:47;97320.38;;;8.37;100.00
8894;BME280;4483;48.622;9.230;2023-11-21T00:04:13;97318.66;;;8.38;100.00
8894;BME280;4483;48.622;9.230;2023-11-21T00:06:40;97323.03;;;8.36;100.00
8894;BME280;4483;48.622;9.230;2023-11-21T00:09:08;97323.94;;;8.35;100.00
8894;BME280;4483;48.622;9.230;2023-11-21T00:11:38;97315.38;;;8.34;100.00
8894;BME280;4483;48.622;9.230;2023-11-21T00:14:05;97316.22;;;8.35;100.00
8894;BME280;4483;48.622;9.230;2023-11-21T00:16:31;97308.47;;;8.36;100.00
8894;BME280;4483;48.622;9.230;2023-11-21T00:18:58;97310.19;;;8.36;100.00
8894;BME280;4483;48.622;9.230;2023-11-21T00:21:25;97306.78;;;8.35;100.00
8894;BME280;4483;48.622;9.230;2023-11-21T00:23:52;97304.28;;;8.34;100.00
8894;BME280;4483;48.622;9.230;2023-11-21T00:26:20;97298.25;;;8.35;100.00
8894;BME280;4483;48.622;9.230;2023-11-21T00:28:46;97300.00;;;8.34;100.00
8894;BME280;4483;48.622;9.230;2023-11-21T00:31:13;97290.56;;;8.35;100.00
8894;BME280;4483;48.622;9.230;2023-11-21T00:33:40;97292.22;;;8.36;100.00
8894;BME280;4483;48.622;9.230;2023-11-21T00:36:07;97298.19;;;8.36;100.00
8894;BME280;4483;48.622;9.230;2023-11-21T00:38:35;97301.53;;;8.38;100.00
8894;BME280;4483;48.622;9.230;2023-11-21T00:41:03;97308.31;;;8.39;100.00
8894;BME280;4483;48.622;9.230;2023-11-21T00:43:31;97302.31;;;8.40;100.00
8894;BME280;4483;48.622;9.230;2023-11-21T00:45:59;97303.19;;;8.39;100.00
8894;BME280;4483;48.622;9.230;2023-11-21T00:48:25;97300.63;;;8.39;100.00
8894;BME280;4483;48.622;9.230;2023-11-21T00:50:52;97309.19;;;8.40;100.00
8894;BME280;4483;48.622;9.230;2023-11-21T00:53:18;97298.97;;;8.38;100.00
8894;BME280;4483;48.622;9.230;2023-11-21T00:55:45;97299.91;;;8.36;100.00
8894;BME280;4483;48.622;9.230;2023-11-21T00:58:12;97298.34;;;8.33;100.00
8894;BME280;4483;48.622;9.230;2023-11-21T01:00:40;97302.69;;;8.31;100.00
8894;BME280;4483;48.622;9.230;2023-11-21T01:03:06;97300.13;;;8.31;100.00
8894;BME280;4483;48.622;9.230;2023-11-21T01:05:33;97296.66;;;8.32;100.00
8894;BME280;4483;48.622;9.230;2023-11-21T01:08:00;97310.25;;;8.34;100.00
8894;BME280;4483;48.622;9.230;2023-11-21T01:10:27;97301.72;;;8.34;100.00
8894;BME280;4483;48.622;9.230;2023-11-21T01:12:53;97294.84;;;8.34;100.00
8894;BME280;4483;48.622;9.230;2023-11-21T01:15:20;97289.72;;;8.34;100.00
8894;BME280;4483;48.622;9.230;2023-11-21T01:17:48;97282.88;;;8.35;100.00
8894;BME280;4483;48.622;9.230;2023-11-21T01:20:15;97282.78;;;8.36;100.00
8894;BME280;4483;48.622;9.230;2023-11-21T01:22:42;97281.25;;;8.32;100.00
8894;BME280;4483;48.622;9.230;2023-11-21T01:25:10;97287.94;;;8.36;100.00
8894;BME280;4483;48.622;9.230;2023-11-21T01:27:36;97287.94;;;8.36;100.00
8894;BME280;4483;48.622;9.230;2023-11-21T01:30:04;97283.66;;;8.37;100.00
8894;BME280;4483;48.622;9.230;2023-11-21T01:32:32;97287.03;;;8.37;100.00
8894;BME280;4483;48.622;9.230;2023-11-21T01:35:00;97282.72;;;8.38;100.00
8894;BME280;4483;48.622;9.230;2023-11-21T01:37:27;97279.44;;;8.34;100.00
8894;BME280;4483;48.622;9.230;2023-11-21T01:39:55;97282.78;;;8.36;100.00
8894;BME280;4483;48.622;9.230;2023-11-21T01:42:22;97280.38;;;8.33;100.00
8894;BME280;4483;48.622;9.230;2023-11-21T01:44:49;97273.53;;;8.32;100.00
8894;BME280;4483;48.622;9.230;2023-11-21T01:47:16;97270.22;;;8.30;100.00
8894;BME280;4483;48.622;9.230;2023-11-21T01:49:43;97282.19;;;8.30;100.00
8894;BME280;4483;48.622;9.230;2023-11-21T01:52:12;97286.50;;;8.29;100.00
8894;BME280;4483;48.622;9.230;2023-11-21T01:54:40;97283.16;;;8.27;100.00
8894;BME280;4483;48.622;9.230;2023-11-21T01:57:07;97279.75;;;8.27;100.00
8894;BME280;4483;48.622;9.230;2023-11-21T01:59:36;97276.41;;;8.25;100.00
8894;BME280;4483;48.622;9.230;2023-11-21T02:02:03;97278.97;;;8.25;100.00
8894;BME280;4483;48.622;9.230;2023-11-21T02:04:30;97285.88;;;8.23;100.00
8894;BME280;4483;48.622;9.230;2023-11-21T02:06:57;97284.16;;;8.23;100.00
8894;BME280;4483;48.622;9.230;2023-11-21T02:09:26;97274.72;;;8.24;100.00
8894;BME280;4483;48.622;9.230;2023-11-21T02:11:54;97278.13;;;8.24;100.00
8894;BME280;4483;48.622;9.230;2023-11-21T02:14:21;97280.81;;;8.21;100.00
8894;BME280;4483;48.622;9.230;2023-11-21T02:16:48;97274.13;;;8.17;100.00
8894;BME280;4483;48.622;9.230;2023-11-21T02:19:18;97280.22;;;8.14;100.00
8894;BME280;4483;48.622;9.230;2023-11-21T02:21:45;97275.13;;;8.13;100.00
8894;BME280;4483;48.622;9.230;2023-11-21T02:24:14;97273.34;;;8.15;100.00
8894;BME280;4483;48.622;9.230;2023-11-21T02:26:42;97275.91;;;8.15;100.00
8894;BME280;4483;48.622;9.230;2023-11-21T02:29:09;97276.03;;;8.12;100.00
8894;BME280;4483;48.622;9.230;2023-11-21T02:31:38;97276.13;;;8.10;100.00
8894;BME280;4483;48.622;9.230;2023-11-21T02:34:13;97270.22;;;8.08;100.00
8894;BME280;4483;48.622;9.230;2023-11-21T02:36:40;97271.94;;;8.08;100.00
8894;BME280;4483;48.622;9.230;2023-11-21T02:39:08;97264.28;;;8.06;100.00
8894;BME280;4483;48.622;9.230;2023-11-21T02:41:36;97261.72;;;8.06;100.00
8894;BME280;4483;48.622;9.230;2023-11-21T02:44:03;97265.22;;;8.05;100.00
8894;BME280;4483;48.622;9.230;2023-11-21T02:46:31;97266.94;;;8.05;100.00
8894;BME280;4483;48.622;9.230;2023-11-21T02:48:59;97263.59;;;8.03;100.00
8894;BME280;4483;48.622;9.230;2023-11-21T02:51:25;97263.66;;;8.01;100.00
8894;BME280;4483;48.622;9.230;2023-11-21T02:53:52;97261.19;;;7.98;100.00
8894;BME280;4483;48.622;9.230;2023-11-21T02:56:18;97264.66;;;7.97;100.00
8894;BME280;4483;48.622;9.230;2023-11-21T02:58:46;97267.22;;;7.97;100.00
8894;BME280;4483;48.622;9.230;2023-11-21T03:01:13;97269.84;;;7.96;100.00
8894;BME280;4483;48.622;9.230;2023-11-21T03:03:39;97263.94;;;7.94;100.00
8894;BME280;4483;48.622;9.230;2023-11-21T03:06:07;97263.22;;;7.90;100.00
8894;BME280;4483;48.622;9.230;2023-11-21T03:08:33;97261.63;;;7.88;100.00
8894;BME280;4483;48.622;9.230;2023-11-21T03:11:00;97268.53;;;7.86;100.00
8894;BME280;4483;48.622;9.230;2023-11-21T03:13:28;97258.34;;;7.84;100.00
8894;BME280;4483;48.622;9.230;2023-11-21T03:15:56;97260.13;;;7.82;100.00
8894;BME280;4483;48.622;9.230;2023-11-21T03:18:22;97255.97;;;7.80;100.00
8894;BME280;4483;48.622;9.230;2023-11-21T03:20:49;97261.03;;;7.81;100.00
8894;BME280;4483;48.622;9.230;2023-11-21T03:23:15;97268.72;;;7.81;100.00
8894;BME280;4483;48.622;9.230;2023-11-21T03:25:42;97270.31;;;7.84;100.00
8894;BME280;4483;48.622;9.230;2023-11-21T03:28:09;97260.06;;;7.84;100.00
8894;BME280;4483;48.622;9.230;2023-11-21T03:30:35;97267.75;;;7.84;100.00
8894;BME280;4483;48.622;9.230;2023-11-21T03:33:03;97266.94;;;7.83;100.00
8894;BME280;4483;48.622;9.230;2023-11-21T03:35:30;97265.19;;;7.84;100.00
8894;BME280;4483;48.622;9.230;2023-11-21T03:37:56;97271.22;;;7.83;100.00
8894;BME280;4483;48.622;9.230;2023-11-21T03:40:23;97270.38;;;7.82;100.00
8894;BME280;4483;48.622;9.230;2023-11-21T03:42:49;97268.72;;;7.81;100.00
8894;BME280;4483;48.622;9.230;2023-11-21T03:45:16;97261.97;;;7.79;100.00
8894;BME280;4483;48.622;9.230;2023-11-21T03:47:44;97270.63;;;7.76;100.00
8894;BME280;4483;48.622;9.230;2023-11-21T03:50:12;97273.38;;;7.72;100.00
8894;BME280;4483;48.622;9.230;2023-11-21T03:52:39;97267.47;;;7.70;100.00
8894;BME280;4483;48.622;9.230;2023-11-21T03:55:05;97271.81;;;7.68;100.00
8894;BME280;4483;48.622;9.230;2023-11-21T03:57:32;97266.69;;;7.68;100.00
8894;BME280;4483;48.622;9.230;2023-11-21T03:59:59;97264.06;;;7.69;100.00
8894;BME280;4483;48.622;9.230;2023-11-21T04:02:25;97267.53;;;7.68;100.00
8894;BME280;4483;48.622;9.230;2023-11-21T04:04:53;97273.50;;;7.69;100.00
8894;BME280;4483;48.622;9.230;2023-11-21T04:07:21;97272.72;;;7.67;100.00
8894;BME280;4483;48.622;9.230;2023-11-21T04:09:48;97272.72;;;7.67;100.00
8894;BME280;4483;48.622;9.230;2023-11-21T04:12:15;97275.16;;;7.70;100.00
8894;BME280;4483;48.622;9.230;2023-11-21T04:14:41;97270.81;;;7.72;100.00
8894;BME280;4483;48.622;9.230;2023-11-21T04:17:08;97270.03;;;7.70;100.00
8894;BME280;4483;48.622;9.230;2023-11-21T04:19:34;97277.66;;;7.71;100.00
8894;BME280;4483;48.622;9.230;2023-11-21T04:22:01;97273.50;;;7.69;100.00
8894;BME280;4483;48.622;9.230;2023-11-21T04:24:29;97276.06;;;7.69;100.00
8894;BME280;4483;48.622;9.230;2023-11-21T04:26:56;97278.63;;;7.69;100.00
8894;BME280;4483;48.622;9.230;2023-11-21T04:29:22;97271.94;;;7.65;100.00
8894;BME280;4483;48.622;9.230;2023-11-21T04:31:49;97269.25;;;7.68;100.00
8894;BME280;4483;48.622;9.230;2023-11-21T04:34:15;97282.72;;;7.73;100.00
8894;BME280;4483;48.622;9.230;2023-11-21T04:36:42;97286.06;;;7.75;100.00
8894;BME280;4483;48.622;9.230;2023-11-21T04:39:09;97291.19;;;7.75;100.00
8894;BME280;4483;48.622;9.230;2023-11-21T04:41:38;97283.63;;;7.72;100.00
8894;BME280;4483;48.622;9.230;2023-11-21T04:44:05;97297.09;;;7.77;100.00
8894;BME280;4483;48.622;9.230;2023-11-21T04:46:32;97298.88;;;7.75;100.00
8894;BME280;4483;48.622;9.230;2023-11-21T04:48:58;97298.09;;;7.73;100.00
8894;BME280;4483;48.622;9.230;2023-11-21T04:51:25;97298.09;;;7.73;100.00
8894;BME280;4483;48.622;9.230;2023-11-21T04:53:52;97302.41;;;7.72;100.00
8894;BME280;4483;48.622;9.230;2023-11-21T04:56:19;97300.66;;;7.73;100.00
8894;BME280;4483;48.622;9.230;2023-11-21T04:58:47;97299.72;;;7.75;100.00
8894;BME280;4483;48.622;9.230;2023-11-21T05:01:14;97303.22;;;7.73;100.00
8894;BME280;4483;48.622;9.230;2023-11-21T05:03:40;97306.56;;;7.75;100.00
8894;BME280;4483;48.622;9.230;2023-11-21T05:06:09;97304.91;;;7.74;100.00
8894;BME280;4483;48.622;9.230;2023-11-21T05:08:36;97309.91;;;7.77;100.00
8894;BME280;4483;48.622;9.230;2023-11-21T05:11:03;97309.91;;;7.77;100.00
8894;BME280;4483;48.622;9.230;2023-11-21T05:13:31;97303.91;;;7.78;100.00
8894;BME280;4483;48.622;9.230;2023-11-21T05:15:59;97310.69;;;7.79;100.00
8894;BME280;4483;48.622;9.230;2023-11-21T05:18:29;97313.16;;;7.82;100.00
8894;BME280;4483;48.622;9.230;2023-11-21T05:20:56;97312.25;;;7.83;100.00
8894;BME280;4483;48.622;9.230;2023-11-21T05:23:23;97299.31;;;7.86;100.00
8894;BME280;4483;48.622;9.230;2023-11-21T05:25:50;97309.56;;;7.86;100.00
8894;BME280;4483;48.622;9.230;2023-11-21T05:28:17;97316.38;;;7.87;100.00
8894;BME280;4483;48.622;9.230;2023-11-21T05:30:43;97322.31;;;7.87;100.00
8894;BME280;4483;48.622;9.230;2023-11-21T05:33:11;97323.94;;;7.90;100.00
8894;BME280;4483;48.622;9.230;2023-11-21T05:35:38;97325.66;;;7.89;100.00
8894;BME280;4483;48.622;9.230;2023-11-21T05:38:05;97328.19;;;7.91;100.00
8894;BME280;4483;48.622;9.230;2023-11-21T05:40:31;97331.56;;;7.91;100.00
8894;BME280;4483;48.622;9.230;2023-11-21T05:42:58;97334.06;;;7.93;100.00
8894;BME280;4483;48.622;9.230;2023-11-21T05:45:25;97336.63;;;7.93;100.00
8894;BME280;4483;48.622;9.230;2023-11-21T05:47:52;97340.91;;;7.94;100.00
8894;BME280;4483;48.622;9.230;2023-11-21T05:50:20;97334.28;;;7.88;100.00
8894;BME280;4483;48.622;9.230;2023-11-21T05:52:48;97336.84;;;7.88;100.00
8894;BME280;4483;48.622;9.230;2023-11-21T05:55:14;97333.50;;;7.86;100.00
8894;BME280;4483;48.622;9.230;2023-11-21T05:57:43;97336.13;;;7.85;100.00
8894;BME280;4483;48.622;9.230;2023-11-21T06:00:11;97338.56;;;7.88;100.00
8894;BME280;4483;48.622;9.230;2023-11-21T06:02:43;97341.03;;;7.91;100.00
8894;BME280;4483;48.622;9.230;2023-11-21T06:05:10;97337.56;;;7.92;100.00
8894;BME280;4483;48.622;9.230;2023-11-21T06:07:38;97344.34;;;7.93;100.00
8894;BME280;4483;48.622;9.230;2023-11-21T06:10:07;97346.81;;;7.96;100.00
8894;BME280;4483;48.622;9.230;2023-11-21T06:12:36;97349.31;;;7.97;100.00
8894;BME280;4483;48.622;9.230;2023-11-21T06:15:03;97348.38;;;8.00;100.00
8894;BME280;4483;48.622;9.230;2023-11-21T06:17:32;97349.97;;;8.02;100.00
8894;BME280;4483;48.622;9.230;2023-11-21T06:20:01;97349.09;;;8.03;100.00
8894;BME280;4483;48.622;9.230;2023-11-21T06:22:29;97357.59;;;8.04;100.00
8894;BME280;4483;48.622;9.230;2023-11-21T06:24:57;97350.81;;;8.03;100.00
8894;BME280;4483;48.622;9.230;2023-11-21T06:27:24;97360.13;;;8.05;100.00
8894;BME280;4483;48.622;9.230;2023-11-21T06:29:50;97361.00;;;8.04;100.00
8894;BME280;4483;48.622;9.230;2023-11-21T06:32:17;97367.84;;;8.04;100.00
8894;BME280;4483;48.622;9.230;2023-11-21T06:34:45;97365.34;;;8.02;100.00
8894;BME280;4483;48.622;9.230;2023-11-21T06:37:12;97377.31;;;8.03;100.00
8894;BME280;4483;48.622;9.230;2023-11-21T06:39:39;97374.66;;;8.05;100.00
8894;BME280;4483;48.622;9.230;2023-11-21T06:42:07;97385.72;;;8.07;100.00
8894;BME280;4483;48.622;9.230;2023-11-21T06:44:33;97383.16;;;8.07;100.00
8894;BME280;4483;48.622;9.230;2023-11-21T06:47:01;97383.94;;;8.09;100.00
8894;BME280;4483;48.622;9.230;2023-11-21T06:49:28;97391.63;;;8.09;100.00
8894;BME280;4483;48.622;9.230;2023-11-21T06:51:55;97392.44;;;8.09;100.00
8894;BME280;4483;48.622;9.230;2023-11-21T06:54:21;97391.63;;;8.09;100.00
8894;BME280;4483;48.622;9.230;2023-11-21T06:56:48;97397.53;;;8.11;100.00
8894;BME280;4483;48.622;9.230;2023-11-21T06:59:16;97398.28;;;8.13;100.00
8894;BME280;4483;48.622;9.230;2023-11-21T07:01:43;97395.69;;;8.14;100.00
8894;BME280;4483;48.622;9.230;2023-11-21T07:04:10;97402.47;;;8.15;100.00
8894;BME280;4483;48.622;9.230;2023-11-21T07:06:36;97409.31;;;8.17;100.00
8894;BME280;4483;48.622;9.230;2023-11-21T07:09:03;97401.63;;;8.15;100.00
8894;BME280;4483;48.622;9.230;2023-11-21T07:11:30;97412.69;;;8.17;100.00
8894;BME280;4483;48.622;9.230;2023-11-21T07:13:58;97412.59;;;8.20;100.00
8894;BME280;4483;48.622;9.230;2023-11-21T07:16:26;97414.19;;;8.23;100.00
8894;BME280;4483;48.622;9.230;2023-11-21T07:18:52;97417.56;;;8.25;100.00
8894;BME280;4483;48.622;9.230;2023-11-21T07:21:20;97417.50;;;8.26;100.00
8894;BME280;4483;48.622;9.230;2023-11-21T07:23:46;97416.56;;;8.29;100.00
8894;BME280;4483;48.622;9.230;2023-11-21T07:26:13;97416.41;;;8.33;100.00
8894;BME280;4483;48.622;9.230;2023-11-21T07:28:40;97415.31;;;8.39;100.00
8894;BME280;4483;48.622;9.230;2023-11-21T07:31:06;97412.56;;;8.43;100.00
8894;BME280;4483;48.622;9.230;2023-11-21T07:33:34;97413.16;;;8.50;100.00
8894;BME280;4483;48.622;9.230;2023-11-21T07:36:01;97419.78;;;8.55;100.00
8894;BME280;4483;48.622;9.230;2023-11-21T07:38:27;97425.59;;;8.60;100.00
8894;BME280;4483;48.622;9.230;2023-11-21T07:40:54;97430.59;;;8.63;100.00
8894;BME280;4483;48.622;9.230;2023-11-21T07:43:21;97429.66;;;8.66;100.00
8894;BME280;4483;48.622;9.230;2023-11-21T07:45:47;97430.47;;;8.66;100.00
8894;BME280;4483;48.622;9.230;2023-11-21T07:48:14;97434.78;;;8.66;100.00
8894;BME280;4483;48.622;9.230;2023-11-21T07:50:42;97429.72;;;8.64;100.00
8894;BME280;4483;48.622;9.230;2023-11-21T07:53:09;97440.72;;;8.66;100.00
8894;BME280;4483;48.622;9.230;2023-11-21T07:55:35;97438.22;;;8.65;100.00
8894;BME280;4483;48.622;9.230;2023-11-21T07:58:02;97446.78;;;8.65;100.00
8894;BME280;4483;48.622;9.230;2023-11-21T08:00:29;97444.06;;;8.68;100.00
8894;BME280;4483;48.622;9.230;2023-11-21T08:02:56;97444.78;;;8.72;100.00
8894;BME280;4483;48.622;9.230;2023-11-21T08:05:23;97442.19;;;8.73;100.00
8894;BME280;4483;48.622;9.230;2023-11-21T08:07:51;97440.25;;;8.78;100.00
8894;BME280;4483;48.622;9.230;2023-11-21T08:10:18;97440.06;;;8.83;100.00
8894;BME280;4483;48.622;9.230;2023-11-21T08:12:45;97447.66;;;8.86;100.00
8894;BME280;4483;48.622;9.230;2023-11-21T08:15:13;97447.47;;;8.90;100.00
8894;BME280;4483;48.622;9.230;2023-11-21T08:17:40;97444.72;;;8.95;100.00
8894;BME280;4483;48.622;9.230;2023-11-21T08:20:07;97446.22;;;9.00;100.00
8894;BME280;4483;48.622;9.230;2023-11-21T08:22:36;97450.28;;;9.06;100.00
8894;BME280;4483;48.622;9.230;2023-11-21T08:25:05;97446.53;;;9.13;100.00
8894;BME280;4483;48.622;9.230;2023-11-21T08:27:31;97450.59;;;9.19;100.00
8894;BME280;4483;48.622;9.230;2023-11-21T08:29:58;97454.75;;;9.21;100.00
8894;BME280;4483;48.622;9.230;2023-11-21T08:32:24;97458.06;;;9.25;100.00
8894;BME280;4483;48.622;9.230;2023-11-21T08:34:51;97461.53;;;9.24;100.00
8894;BME280;4483;48.622;9.230;2023-11-21T08:37:18;97462.38;;;9.24;100.00
8894;BME280;4483;48.622;9.230;2023-11-21T08:39:44;97465.72;;;9.26;100.00
8894;BME280;4483;48.622;9.230;2023-11-21T08:42:13;97468.28;;;9.26;100.00
8894;BME280;4483;48.622;9.230;2023-11-21T08:44:40;97465.50;;;9.31;100.00
8894;BME280;4483;48.622;9.230;2023-11-21T08:47:06;97463.84;;;9.30;100.00
8894;BME280;4483;48.622;9.230;2023-11-21T08:49:33;97463.13;;;9.26;100.00
8894;BME280;4483;48.622;9.230;2023-11-21T08:52:00;97468.78;;;9.34;100.00
8894;BME280;4483;48.622;9.230;2023-11-21T08:54:26;97468.69;;;9.37;100.00
8894;BME280;4483;48.622;9.230;2023-11-21T08:56:53;97478.88;;;9.39;100.00
8894;BME280;4483;48.622;9.230;2023-11-21T08:59:21;97473.59;;;9.42;100.00
8894;BME280;4483;48.622;9.230;2023-11-21T09:01:49;97477.97;;;9.40;100.00
8894;BME280;4483;48.622;9.230;2023-11-21T09:04:16;97483.91;;;9.42;100.00
8894;BME280;4483;48.622;9.230;2023-11-21T09:06:42;97489.94;;;9.41;100.00
8894;BME280;4483;48.622;9.230;2023-11-21T09:09:09;97495.03;;;9.42;100.00
8894;BME280;4483;48.622;9.230;2023-11-21T09:11:36;97486.41;;;9.43;100.00
8894;BME280;4483;48.622;9.230;2023-11-21T09:14:03;97489.69;;;9.47;100.00
8894;BME280;4483;48.622;9.230;2023-11-21T09:16:31;97493.78;;;9.51;100.00
8894;BME280;4483;48.622;9.230;2023-11-21T09:18:58;97493.78;;;9.51;100.00
8894;BME280;4483;48.622;9.230;2023-11-21T09:21:25;97493.63;;;9.55;100.00
8894;BME280;4483;48.622;9.230;2023-11-21T09:23:52;97494.41;;;9.57;100.00
8894;BME280;4483;48.622;9.230;2023-11-21T09:26:19;97494.09;;;9.63;100.00
8894;BME280;4483;48.622;9.230;2023-11-21T09:28:46;97496.25;;;9.74;100.00
8894;BME280;4483;48.622;9.230;2023-11-21T09:31:13;97498.91;;;9.91;100.00
8894;BME280;4483;48.622;9.230;2023-11-21T09:33:42;97500.13;;;10.41;100.00
8894;BME280;4483;48.622;9.230;2023-11-21T09:36:11;97488.84;;;11.51;100.00
8894;BME280;4483;48.622;9.230;2023-11-21T09:38:38;97495.09;;;12.13;100.00
8894;BME280;4483;48.622;9.230;2023-11-21T09:41:13;97499.41;;;12.61;100.00
8894;BME280;4483;48.622;9.230;2023-11-21T09:43:43;97506.91;;;12.81;100.00
8894;BME280;4483;48.622;9.230;2023-11-21T09:46:12;97510.72;;;12.43;100.00
8894;BME280;4483;48.622;9.230;2023-11-21T09:48:48;97507.13;;;11.97;100.00
8894;BME280;4483;48.622;9.230;2023-11-21T09:51:19;97514.09;;;11.61;100.00
8894;BME280;4483;48.622;9.230;2023-11-21T09:53:49;97511.13;;;11.35;100.00
8894;BME280;4483;48.622;9.230;2023-11-21T09:56:17;97509.75;;;11.10;100.00
8894;BME280;4483;48.622;9.230;2023-11-21T09:58:50;97515.53;;;10.97;100.00
8894;BME280;4483;48.622;9.230;2023-11-21T10:01:18;97521.97;;;10.88;100.00
8894;BME280;4483;48.622;9.230;2023-11-21T10:03:47;97514.59;;;10.81;100.00
8894;BME280;4483;48.622;9.230;2023-11-21T10:06:14;97523.94;;;10.83;100.00
8894;BME280;4483;48.622;9.230;2023-11-21T10:08:42;97523.09;;;10.83;100.00
8894;BME280;4483;48.622;9.230;2023-11-21T10:11:10;97523.78;;;10.86;100.00
8894;BME280;4483;48.622;9.230;2023-11-21T10:13:40;97522.25;;;10.82;100.00
8894;BME280;4483;48.622;9.230;2023-11-21T10:16:07;97522.94;;;10.86;100.00
8894;BME280;4483;48.622;9.230;2023-11-21T10:18:37;97531.66;;;10.83;100.00
8894;BME280;4483;48.622;9.230;2023-11-21T10:21:07;97525.75;;;10.81;100.00
8894;BME280;4483;48.622;9.230;2023-11-21T10:23:34;97524.81;;;10.82;100.00
8894;BME280;4483;48.622;9.230;2023-11-21T10:26:01;97515.34;;;10.83;100.00
8894;BME280;4483;48.622;9.230;2023-11-21T10:28:27;97519.63;;;10.84;100.00
8894;BME280;4483;48.622;9.230;2023-11-21T10:30:55;97525.59;;;10.84;100.00
8894;BME280;4483;48.622;9.230;2023-11-21T10:33:27;97519.38;;;10.88;100.00
8894;BME280;4483;48.622;9.230;2023-11-21T10:35:54;97527.41;;;10.82;100.00
8894;BME280;4483;48.622;9.230;2023-11-21T10:38:22;97530.13;;;10.79;100.00
8894;BME280;4483;48.622;9.230;2023-11-21T10:40:50;97527.41;;;10.82;100.00
8894;BME280;4483;48.622;9.230;2023-11-21T10:43:17;97527.41;;;10.82;100.00
8894;BME280;4483;48.622;9.230;2023-11-21T10:45:44;97524.81;;;10.82;100.00
8894;BME280;4483;48.622;9.230;2023-11-21T10:48:14;97532.63;;;10.81;100.00
8894;BME280;4483;48.622;9.230;2023-11-21T10:50:43;97531.16;;;10.75;100.00
8894;BME280;4483;48.622;9.230;2023-11-21T10:53:10;97536.47;;;10.72;100.00
8894;BME280;4483;48.622;9.230;2023-11-21T10:55:39;97538.63;;;10.63;100.00
8894;BME280;4483;48.622;9.230;2023-11-21T10:58:06;97534.41;;;10.62;100.00
8894;BME280;4483;48.622;9.230;2023-11-21T11:00:36;97540.50;;;10.59;100.00
8894;BME280;4483;48.622;9.230;2023-11-21T11:03:05;97527.00;;;10.54;100.00
8894;BME280;4483;48.622;9.230;2023-11-21T11:05:40;97527.44;;;10.45;100.00
8894;BME280;4483;48.622;9.230;2023-11-21T11:08:12;97530.88;;;10.44;100.00
8894;BME280;4483;48.622;9.230;2023-11-21T11:10:39;97528.72;;;10.35;100.00
8894;BME280;4483;48.622;9.230;2023-11-21T11:13:08;97529.66;;;10.34;100.00
8894;BME280;4483;48.622;9.230;2023-11-21T11:15:35;97530.59;;;10.32;100.00
8894;BME280;4483;48.622;9.230;2023-11-21T11:18:02;97529.66;;;10.34;100.00
8894;BME280;4483;48.622;9.230;2023-11-21T11:20:34;97531.94;;;10.40;100.00
8894;BME280;4483;48.622;9.230;2023-11-21T11:23:17;97531.66;;;10.46;100.00
8894;BME280;4483;48.622;9.230;2023-11-21T11:26:05;97530.63;;;10.50;100.00
8894;BME280;4483;48.622;9.230;2023-11-21T11:28:40;97530.78;;;10.47;100.00
8894;BME280;4483;48.622;9.230;2023-11-21T11:31:14;97533.38;;;10.46;100.00
8894;BME280;4483;48.622;9.230;2023-11-21T11:33:53;97529.22;;;10.43;100.00
8894;BME280;4483;48.622;9.230;2023-11-21T11:36:29;97526.72;;;10.42;100.00
8894;BME280;4483;48.622;9.230;2023-11-21T11:39:00;97531.31;;;10.35;100.00
8894;BME280;4483;48.622;9.230;2023-11-21T11:41:30;97534.22;;;10.28;100.00
8894;BME280;4483;48.622;9.230;2023-11-21T11:44:00;97536.78;;;10.28;100.00
8894;BME280;4483;48.622;9.230;2023-11-21T11:46:40;97537.84;;;10.24;100.00
8894;BME280;4483;48.622;9.230;2023-11-21T11:49:08;97545.56;;;10.24;100.00
8894;BME280;4483;48.622;9.230;2023-11-21T11:51:34;97541.25;;;10.24;100.00
8894;BME280;4483;48.622;9.230;2023-11-21T11:54:01;97548.00;;;10.27;100.00
8894;BME280;4483;48.622;9.230;2023-11-21T11:56:30;97541.91;;;10.29;100.00
8894;BME280;4483;48.622;9.230;2023-11-21T11:59:00;97547.78;;;10.31;100.00
8894;BME280;4483;48.622;9.230;2023-11-21T12:01:28;97549.47;;;10.32;100.00
8894;BME280;4483;48.622;9.230;2023-11-21T12:04:23;97544.31;;;10.32;100.00
8894;BME280;4483;48.622;9.230;2023-11-21T12:06:56;97539.44;;;10.26;100.00
8894;BME280;4483;48.622;9.230;2023-11-21T12:09:25;97540.47;;;10.22;100.00
8894;BME280;4483;48.622;9.230;2023-11-21T12:11:54;97544.09;;;10.18;100.00
8894;BME280;4483;48.622;9.230;2023-11-21T12:14:22;97558.81;;;10.14;100.00
8894;BME280;4483;48.622;9.230;2023-11-21T12:16:49;97552.00;;;10.13;100.00
8894;BME280;4483;48.622;9.230;2023-11-21T12:19:17;97554.50;;;10.15;100.00
8894;BME280;4483;48.622;9.230;2023-11-21T12:21:43;97547.56;;;10.17;100.00
8894;BME280;4483;48.622;9.230;2023-11-21T12:24:10;97552.63;;;10.19;100.00
8894;BME280;4483;48.622;9.230;2023-11-21T12:26:39;97546.38;;;10.24;100.00
8894;BME280;4483;48.622;9.230;2023-11-21T12:29:07;97554.69;;;10.31;100.00
8894;BME280;4483;48.622;9.230;2023-11-21T12:31:34;97550.09;;;10.37;100.00
8894;BME280;4483;48.622;9.230;2023-11-21T12:34:01;97554.00;;;10.46;100.00
8894;BME280;4483;48.622;9.230;2023-11-21T12:36:28;97552.06;;;10.51;100.00
8894;BME280;4483;48.622;9.230;2023-11-21T12:38:55;97563.25;;;10.50;100.00
8894;BME280;4483;48.622;9.230;2023-11-21T12:41:22;97559.88;;;10.49;100.00
8894;BME280;4483;48.622;9.230;2023-11-21T12:43:49;97558.19;;;10.48;100.00
8894;BME280;4483;48.622;9.230;2023-11-21T12:46:17;97561.34;;;10.55;100.00
8894;BME280;4483;48.622;9.230;2023-11-21T12:48:45;97563.34;;;10.48;100.00
8894;BME280;4483;48.622;9.230;2023-11-21T12:51:13;97571.69;;;10.53;100.00
8894;BME280;4483;48.622;9.230;2023-11-21T12:53:41;97565.56;;;10.56;100.00
8894;BME280;4483;48.622;9.230;2023-11-21T12:56:10;97559.47;;;10.58;100.00
8894;BME280;4483;48.622;9.230;2023-11-21T12:58:37;97560.97;;;10.62;100.00
8894;BME280;4483;48.622;9.230;2023-11-21T13:01:05;97561.63;;;10.67;100.00
8894;BME280;4483;48.622;9.230;2023-11-21T13:03:38;97565.66;;;10.73;100.00
8894;BME280;4483;48.622;9.230;2023-11-21T13:06:06;97565.31;;;10.80;100.00
8894;BME280;4483;48.622;9.230;2023-11-21T13:08:33;97559.09;;;10.84;100.00
8894;BME280;4483;48.622;9.230;2023-11-21T13:11:00;97554.69;;;10.86;100.00
8894;BME280;4483;48.622;9.230;2023-11-21T13:13:28;97548.94;;;10.81;100.00
8894;BME280;4483;48.622;9.230;2023-11-21T13:15:56;97553.16;;;10.82;100.00
8894;BME280;4483;48.622;9.230;2023-11-21T13:18:26;97555.00;;;10.80;100.00
8894;BME280;4483;48.622;9.230;2023-11-21T13:20:55;97561.19;;;10.76;100.00
8894;BME280;4483;48.622;9.230;2023-11-21T13:23:22;97563.09;;;10.73;100.00